Raymond, Canada
Current Conditions -  °F | °C
As of 6:00 PM on Monday 26 Jan 2015 (Local Time) from CYQL Reporting Station
Broken Clouds Broken Clouds  
Wind Chill: 11°   Ceiling: 30000
Heat Index: 11°   Visibility: 40mi
Dew Point:   Wind: 18mph
Humidity: 50%   Direction: 220°SW
Pressure: 29.79"   Gusts: NA
Location:  49.47°N, 112.66°W
Report Text: CYQL 270100Z 22016KT 40SM FEW170 BKN300 11/01 A2979 RMK AC1CI4 SLP098 DENSITY ALT 3300FT
Loading
Personal Weather Stations






























Interactive Weather Map New forecast layout! Learn more

10-Day Weather Forecast

Advertisements
Track Severe Weather on mobile